createdAt,value
2018-08-10T00:00:35.256Z,98745.16
2018-08-10T00:03:03.745Z,98743.83
2018-08-10T00:05:31.958Z,98757.88
2018-08-10T00:08:00.374Z,98756.72
2018-08-10T00:10:28.769Z,98762.11
2018-08-10T00:12:57.570Z,98768.02
2018-08-10T00:15:25.781Z,98769.91
2018-08-10T00:17:54.336Z,98772.52
2018-08-10T00:20:25.211Z,98773.19
2018-08-10T00:23:32.343Z,98776.11
2018-08-10T00:26:00.583Z,98788.36
2018-08-10T00:28:28.832Z,98792.74
2018-08-10T00:30:57.000Z,98796.67
2018-08-10T00:33:25.503Z,98796.00
2018-08-10T00:35:53.824Z,98793.20
2018-08-10T00:38:22.209Z,98783.89
2018-08-10T00:40:50.445Z,98805.17
2018-08-10T00:43:18.681Z,98807.95
2018-08-10T00:45:48.261Z,98820.69
2018-08-10T00:48:16.469Z,98820.77
2018-08-10T00:50:44.902Z,98822.73
2018-08-10T00:53:13.184Z,98824.20
2018-08-10T00:55:41.429Z,98835.27
2018-08-10T00:58:09.682Z,98831.97
2018-08-10T01:00:37.975Z,98835.67
2018-08-10T01:03:06.214Z,98840.28
2018-08-10T01:05:35.090Z,98847.47
2018-08-10T01:08:03.357Z,98853.11
2018-08-10T01:10:32.042Z,98849.75
2018-08-10T01:13:00.340Z,98848.92
2018-08-10T01:15:29.010Z,98863.09
2018-08-10T01:17:57.313Z,98869.65
2018-08-10T01:20:25.858Z,98867.68
2018-08-10T01:22:59.951Z,98869.16
2018-08-10T01:25:28.477Z,98869.16
2018-08-10T01:27:58.720Z,98875.33
2018-08-10T01:30:29.822Z,98880.36
2018-08-10T01:32:59.304Z,98887.94
2018-08-10T01:35:28.385Z,98910.33
2018-08-10T01:37:57.917Z,98896.58
2018-08-10T01:40:26.172Z,98898.15
2018-08-10T01:42:54.353Z,98900.25
2018-08-10T01:45:22.551Z,98907.48
2018-08-10T01:47:50.834Z,98909.84
2018-08-10T01:50:19.308Z,98912.13
2018-08-10T01:52:47.488Z,98912.41
2018-08-10T01:55:15.696Z,98921.11
2018-08-10T01:57:44.241Z,98921.75
2018-08-10T02:00:12.764Z,98917.27
2018-08-10T02:02:41.082Z,98932.30
2018-08-10T02:05:11.753Z,98939.53
2018-08-10T02:07:40.724Z,98946.71
2018-08-10T02:10:11.874Z,98946.57
2018-08-10T02:12:41.060Z,98951.46
2018-08-10T02:15:12.899Z,98957.16
2018-08-10T02:17:41.418Z,98950.50
2018-08-10T02:20:12.142Z,98948.59
2018-08-10T02:22:40.353Z,98956.37
2018-08-10T02:25:10.508Z,98960.02
2018-08-10T02:27:39.061Z,98961.00
2018-08-10T02:30:09.835Z,98956.54
2018-08-10T02:32:38.388Z,98960.44
2018-08-10T02:35:07.336Z,98963.09
2018-08-10T02:37:36.207Z,98960.21
2018-08-10T02:40:07.845Z,98957.48
2018-08-10T02:42:36.334Z,98962.02
2018-08-10T02:45:05.839Z,98960.92
2018-08-10T02:47:34.029Z,98957.09
2018-08-10T02:50:02.246Z,98961.67
2018-08-10T02:52:30.723Z,98965.49
2018-08-10T02:54:59.724Z,98965.77
2018-08-10T02:57:27.921Z,98969.08
2018-08-10T02:59:56.431Z,98976.93
2018-08-10T03:02:24.987Z,98980.56
2018-08-10T03:04:53.343Z,98977.09
2018-08-10T03:07:21.583Z,98977.56
2018-08-10T03:09:49.854Z,98984.19
2018-08-10T03:12:18.030Z,98991.20
2018-08-10T03:14:46.305Z,98989.86
2018-08-10T03:17:14.508Z,98983.73
2018-08-10T03:19:42.752Z,98988.23
2018-08-10T03:22:11.305Z,98985.70
2018-08-10T03:24:40.551Z,98991.44
2018-08-10T03:27:08.788Z,98988.01
2018-08-10T03:29:37.397Z,98992.55
2018-08-10T03:32:05.950Z,98993.89
2018-08-10T03:34:34.457Z,98987.72
2018-08-10T03:37:02.752Z,98999.24
2018-08-10T03:39:31.033Z,99002.25
2018-08-10T03:41:59.350Z,99002.17
2018-08-10T03:44:27.869Z,99010.09
2018-08-10T03:46:56.304Z,99010.12
2018-08-10T03:49:24.934Z,99017.18
2018-08-10T03:51:53.124Z,99024.93
2018-08-10T03:54:21.894Z,99021.53
2018-08-10T03:56:50.383Z,99028.62
2018-08-10T03:59:18.674Z,99029.00
2018-08-10T04:01:47.242Z,99047.48
2018-08-10T04:04:15.574Z,99043.38
2018-08-10T04:06:43.833Z,99041.44
2018-08-10T04:09:12.749Z,99046.55
2018-08-10T04:11:41.637Z,99040.27
2018-08-10T04:14:10.715Z,99038.97
2018-08-10T04:16:39.447Z,99045.73
2018-08-10T04:19:08.419Z,99053.36
2018-08-10T04:21:36.606Z,99058.34
2018-08-10T04:24:05.015Z,99059.91
2018-08-10T04:26:33.654Z,99066.59
2018-08-10T04:29:01.906Z,99071.30
2018-08-10T04:31:30.093Z,99064.66
2018-08-10T04:33:58.328Z,99066.26
2018-08-10T04:36:26.553Z,99069.63
2018-08-10T04:38:54.875Z,99071.72
2018-08-10T04:41:23.086Z,99077.22
2018-08-10T04:43:51.923Z,99087.38
2018-08-10T04:46:20.223Z,99087.38
2018-08-10T04:48:48.485Z,99093.66
2018-08-10T04:51:17.612Z,99103.29
2018-08-10T04:53:45.854Z,99107.55
2018-08-10T04:56:14.062Z,99112.59
2018-08-10T04:58:42.914Z,99115.25
2018-08-10T05:01:11.106Z,99109.94
2018-08-10T05:03:39.353Z,99118.72
2018-08-10T05:06:07.633Z,99128.29
2018-08-10T05:08:35.801Z,99133.27
2018-08-10T05:11:04.056Z,99143.61
2018-08-10T05:13:32.324Z,99150.28
2018-08-10T05:16:00.629Z,99150.53
2018-08-10T05:18:29.210Z,99158.72
2018-08-10T05:20:57.444Z,99161.06
2018-08-10T05:23:25.781Z,99162.66
2018-08-10T05:25:54.207Z,99171.91
2018-08-10T05:28:22.723Z,99168.91
2018-08-10T05:30:51.282Z,99171.44
2018-08-10T05:33:20.047Z,99177.33
2018-08-10T05:35:48.242Z,99175.70
2018-08-10T05:38:16.789Z,99185.48
2018-08-10T05:40:46.680Z,99187.73
2018-08-10T05:43:16.507Z,99193.05
2018-08-10T05:45:44.705Z,99194.90
2018-08-10T05:48:13.100Z,99198.78
2018-08-10T05:50:41.426Z,99205.29
2018-08-10T05:53:09.696Z,99198.63
2018-08-10T05:55:37.963Z,99203.09
2018-08-10T05:58:06.289Z,99203.22
2018-08-10T06:00:34.836Z,99204.62
2018-08-10T06:03:03.559Z,99206.34
2018-08-10T06:05:32.139Z,99206.80
2018-08-10T06:08:00.498Z,99210.88
2018-08-10T06:10:30.045Z,99212.92
2018-08-10T06:12:58.585Z,99213.64
2018-08-10T06:15:26.855Z,99228.51
2018-08-10T06:17:55.065Z,99221.50
2018-08-10T06:20:23.302Z,99215.05
2018-08-10T06:22:51.687Z,99218.13
2018-08-10T06:25:19.906Z,99222.60
2018-08-10T06:27:48.273Z,99219.08
2018-08-10T06:30:16.618Z,99219.02
2018-08-10T06:32:44.917Z,99221.83
2018-08-10T06:35:13.457Z,99232.17
2018-08-10T06:37:41.741Z,99235.73
2018-08-10T06:40:10.017Z,99241.84
2018-08-10T06:42:38.300Z,99237.80
2018-08-10T06:45:07.268Z,99233.89
2018-08-10T06:47:38.955Z,99241.55
2018-08-10T06:50:07.835Z,99238.77
2018-08-10T06:52:36.130Z,99236.45
2018-08-10T06:55:04.697Z,99237.00
2018-08-10T06:57:33.040Z,99234.47
2018-08-10T07:00:01.516Z,99232.45
2018-08-10T07:02:29.763Z,99229.66
2018-08-10T07:04:58.261Z,99236.98
2018-08-10T07:07:26.575Z,99235.56
2018-08-10T07:09:54.899Z,99235.61
2018-08-10T07:12:23.343Z,99231.30
2018-08-10T07:14:51.903Z,99229.07
2018-08-10T07:17:20.622Z,99230.92
2018-08-10T07:19:49.104Z,99232.81
2018-08-10T07:22:17.686Z,99225.73
2018-08-10T07:24:46.254Z,99231.63
2018-08-10T07:27:15.184Z,99231.00
2018-08-10T07:29:45.383Z,99229.77
2018-08-10T07:32:15.734Z,99235.98
2018-08-10T07:34:43.941Z,99235.47
2018-08-10T07:37:14.641Z,99237.48
2018-08-10T07:39:44.637Z,99233.11
2018-08-10T07:42:12.900Z,99236.06
2018-08-10T07:44:41.236Z,99226.86
2018-08-10T07:47:10.095Z,99220.09
2018-08-10T07:49:39.324Z,99224.27
2018-08-10T07:52:07.878Z,99222.09
2018-08-10T07:54:37.619Z,99219.62
2018-08-10T07:57:06.491Z,99220.76
2018-08-10T07:59:34.712Z,99230.75
2018-08-10T08:02:03.003Z,99230.87
2018-08-10T08:04:31.555Z,99226.28
2018-08-10T08:07:00.022Z,99222.48
2018-08-10T08:09:28.328Z,99221.79
2018-08-10T08:11:56.830Z,99215.31
2018-08-10T08:14:25.088Z,99220.73
2018-08-10T08:16:53.287Z,99219.57
2018-08-10T08:19:21.538Z,99218.23
2018-08-10T08:22:13.114Z,99213.10
2018-08-10T08:24:41.837Z,99219.88
2018-08-10T08:27:10.767Z,99207.47
2018-08-10T08:29:38.990Z,99211.66
2018-08-10T08:32:07.649Z,99211.59
2018-08-10T08:34:35.836Z,99219.58
2018-08-10T08:37:04.576Z,99221.50
2018-08-10T08:40:43.350Z,99224.95
2018-08-10T08:43:11.951Z,99218.04
2018-08-10T08:45:59.297Z,99223.77
2018-08-10T08:48:29.103Z,99214.09
2018-08-10T08:50:58.711Z,99210.09
2018-08-10T08:53:27.229Z,99208.79
2018-08-10T08:56:03.971Z,99202.86
2018-08-10T08:58:33.000Z,99210.66
2018-08-10T09:01:01.511Z,99202.72
2018-08-10T09:03:47.144Z,99211.02
2018-08-10T09:06:15.403Z,99200.48
2018-08-10T09:09:50.249Z,99197.62
2018-08-10T09:12:18.964Z,99191.16
2018-08-10T09:14:49.732Z,99201.05
2018-08-10T09:17:18.140Z,99205.84
2018-08-10T09:19:46.392Z,99202.79
2018-08-10T09:22:15.028Z,99199.39
2018-08-10T09:24:43.917Z,99206.09
2018-08-10T09:27:12.160Z,99201.97
2018-08-10T09:29:40.617Z,99200.57
2018-08-10T09:32:09.058Z,99201.92
2018-08-10T09:34:37.260Z,99202.08
2018-08-10T09:37:06.900Z,99192.06
2018-08-10T09:39:35.504Z,99199.48
2018-08-10T09:42:04.057Z,99201.94
2018-08-10T09:44:33.532Z,99201.59
2018-08-10T09:47:02.512Z,99204.51
2018-08-10T09:49:34.736Z,99206.02
2018-08-10T09:52:03.809Z,99196.70
2018-08-10T09:54:32.684Z,99204.31
2018-08-10T09:57:04.817Z,99203.34
2018-08-10T09:59:33.051Z,99195.10
2018-08-10T10:02:07.547Z,99204.06
2018-08-10T10:04:36.288Z,99199.63
2018-08-10T10:07:04.898Z,99201.91
2018-08-10T10:09:33.539Z,99198.73
2018-08-10T10:12:01.821Z,99197.58
2018-08-10T10:14:31.568Z,99196.62
2018-08-10T10:17:01.539Z,99194.14
2018-08-10T10:19:31.664Z,99184.94
2018-08-10T10:22:02.079Z,99185.00
2018-08-10T10:24:31.218Z,99176.19
2018-08-10T10:26:59.826Z,99172.22
2018-08-10T10:29:28.101Z,99174.63
2018-08-10T10:31:56.556Z,99173.92
2018-08-10T10:34:25.199Z,99169.63
2018-08-10T10:36:53.611Z,99171.64
2018-08-10T10:39:21.853Z,99167.03
2018-08-10T10:41:50.680Z,99169.77
2018-08-10T10:44:19.506Z,99167.70
2018-08-10T10:46:47.789Z,99173.33
2018-08-10T10:49:16.241Z,99164.63
2018-08-10T10:51:45.462Z,99161.37
2018-08-10T10:54:13.648Z,99159.01
2018-08-10T10:56:42.439Z,99162.29
2018-08-10T10:59:10.583Z,99165.09
2018-08-10T11:01:39.149Z,99158.28
2018-08-10T11:04:07.525Z,99161.36
2018-08-10T11:06:36.105Z,99158.64
2018-08-10T11:09:06.384Z,99156.39
2018-08-10T11:11:34.603Z,99154.77
2018-08-10T11:14:03.333Z,99154.97
2018-08-10T11:16:31.698Z,99151.95
2018-08-10T11:19:00.240Z,99159.47
2018-08-10T11:21:28.885Z,99149.81
2018-08-10T11:23:57.617Z,99155.96
2018-08-10T11:26:26.140Z,99152.30
2018-08-10T11:28:54.476Z,99149.91
2018-08-10T11:31:23.704Z,99149.36
2018-08-10T11:33:52.558Z,99152.30
2018-08-10T11:36:20.785Z,99153.86
2018-08-10T11:38:49.320Z,99156.17
2018-08-10T11:41:17.906Z,99153.39
2018-08-10T11:43:46.405Z,99153.78
2018-08-10T11:46:14.906Z,99157.54
2018-08-10T11:48:43.339Z,99153.98
2018-08-10T11:51:11.687Z,99158.33
2018-08-10T11:53:40.917Z,99153.47
2018-08-10T11:56:09.684Z,99146.61
2018-08-10T11:58:38.018Z,99149.46
2018-08-10T12:01:06.517Z,99142.88
2018-08-10T12:03:34.829Z,99139.45
2018-08-10T12:06:03.387Z,99150.47
2018-08-10T12:08:32.583Z,99144.74
2018-08-10T12:11:01.129Z,99139.49
2018-08-10T12:13:29.720Z,99131.45
2018-08-10T12:15:58.232Z,99134.73
2018-08-10T12:18:26.925Z,99134.99
2018-08-10T12:20:55.141Z,99128.34
2018-08-10T12:23:23.845Z,99133.49
2018-08-10T12:25:52.424Z,99123.18
2018-08-10T12:28:21.619Z,99118.11
2018-08-10T12:30:50.252Z,99119.67
2018-08-10T12:33:18.729Z,99123.73
2018-08-10T12:35:47.026Z,99127.44
2018-08-10T12:38:15.258Z,99124.85
2018-08-10T12:40:43.500Z,99126.66
2018-08-10T12:43:12.090Z,99124.17
2018-08-10T12:45:40.363Z,99120.42
2018-08-10T12:48:08.956Z,99121.55
2018-08-10T12:50:37.286Z,99116.20
2018-08-10T12:53:05.436Z,99116.60
2018-08-10T12:55:33.597Z,99115.56
2018-08-10T12:58:02.055Z,99119.14
2018-08-10T13:00:31.376Z,99120.22
2018-08-10T13:03:00.063Z,99113.45
2018-08-10T13:05:28.789Z,99109.95
2018-08-10T13:07:57.861Z,99108.79
2018-08-10T13:10:26.076Z,99110.81
2018-08-10T13:12:54.838Z,99100.62
2018-08-10T13:15:23.027Z,99107.44
2018-08-10T13:17:51.537Z,99101.59
2018-08-10T13:20:19.797Z,99108.14
2018-08-10T13:22:47.964Z,99101.73
2018-08-10T13:25:16.525Z,99098.03
2018-08-10T13:27:44.763Z,99092.23
2018-08-10T13:30:13.332Z,99091.53
2018-08-10T13:32:41.555Z,99097.98
2018-08-10T13:35:16.860Z,99092.59
2018-08-10T13:37:45.112Z,99093.95
2018-08-10T13:40:13.448Z,99091.45
2018-08-10T13:42:41.734Z,99087.13
2018-08-10T13:45:12.774Z,99085.61
2018-08-10T13:47:41.301Z,99077.23
2018-08-10T13:50:13.437Z,99083.61
2018-08-10T13:52:41.636Z,99079.09
2018-08-10T13:55:13.981Z,99080.00
2018-08-10T13:57:42.492Z,99077.33
2018-08-10T14:00:17.658Z,99070.66
2018-08-10T14:02:46.573Z,99070.64
2018-08-10T14:05:14.726Z,99075.49
2018-08-10T14:07:43.591Z,99077.74
2018-08-10T14:10:13.091Z,99076.31
2018-08-10T14:12:42.037Z,99074.06
2018-08-10T14:15:10.924Z,99066.57
2018-08-10T14:17:39.259Z,99063.36
2018-08-10T14:20:08.754Z,99056.23
2018-08-10T14:22:37.066Z,99053.61
2018-08-10T14:25:05.950Z,99054.19
2018-08-10T14:27:34.460Z,99055.98
2018-08-10T14:30:05.366Z,99051.12
2018-08-10T14:32:33.624Z,99054.26
2018-08-10T14:35:02.133Z,99054.50
2018-08-10T14:37:30.364Z,99053.11
2018-08-10T14:39:58.526Z,99053.59
2018-08-10T14:42:26.758Z,99042.03
2018-08-10T14:44:54.987Z,99040.54
2018-08-10T14:47:24.132Z,99043.38
2018-08-10T14:49:52.423Z,99041.13
2018-08-10T14:52:20.624Z,99034.38
2018-08-10T14:54:48.999Z,99042.63
2018-08-10T14:57:18.283Z,99035.91
2018-08-10T14:59:46.491Z,99035.63
2018-08-10T15:02:14.676Z,99033.91
2018-08-10T15:04:42.876Z,99027.11
2018-08-10T15:07:11.277Z,99021.43
2018-08-10T15:09:39.470Z,99018.50
2018-08-10T15:12:07.897Z,99019.61
2018-08-10T15:14:36.032Z,99025.78
2018-08-10T15:17:04.712Z,99023.02
2018-08-10T15:19:33.140Z,99014.41
2018-08-10T15:22:01.355Z,99014.99
2018-08-10T15:24:29.639Z,99011.16
2018-08-10T15:26:57.820Z,99004.67
2018-08-10T15:29:26.656Z,99006.47
2018-08-10T15:31:55.406Z,99007.13
2018-08-10T15:34:23.900Z,99010.25
2018-08-10T15:36:52.700Z,99004.28
2018-08-10T15:39:20.931Z,99002.22
2018-08-10T15:41:55.778Z,99002.48
2018-08-10T15:44:23.997Z,98999.57
2018-08-10T15:46:52.478Z,98995.36
2018-08-10T15:49:20.764Z,99001.08
2018-08-10T15:51:49.009Z,98992.79
2018-08-10T15:54:17.338Z,98991.12
2018-08-10T15:56:45.787Z,98993.81
2018-08-10T15:59:14.744Z,98996.11
2018-08-10T16:01:43.238Z,98987.16
2018-08-10T16:04:11.534Z,98993.00
2018-08-10T16:06:39.783Z,98993.44
2018-08-10T16:09:10.605Z,98990.28
2018-08-10T16:11:43.025Z,98983.01
2018-08-10T16:14:13.159Z,98982.93
2018-08-10T16:16:41.364Z,98987.55
2018-08-10T16:19:10.009Z,98981.92
2018-08-10T16:21:38.247Z,98983.47
2018-08-10T16:24:07.540Z,98989.33
2018-08-10T16:26:35.813Z,98983.48
2018-08-10T16:29:04.066Z,98976.88
2018-08-10T16:31:32.233Z,98980.34
2018-08-10T16:34:00.611Z,98972.55
2018-08-10T16:36:28.807Z,98972.51
2018-08-10T16:38:57.008Z,98968.42
2018-08-10T16:41:25.277Z,98968.63
2018-08-10T16:43:53.470Z,98968.50
2018-08-10T16:46:23.576Z,98966.63
2018-08-10T16:48:52.373Z,98965.19
2018-08-10T16:51:20.661Z,98962.66
2018-08-10T16:53:49.474Z,98960.66
2018-08-10T16:56:18.380Z,98959.81
2018-08-10T16:58:47.531Z,98950.70
2018-08-10T17:01:16.093Z,98963.77
2018-08-10T17:03:45.510Z,98959.39
2018-08-10T17:06:14.341Z,98958.14
2018-08-10T17:08:43.051Z,98962.03
2018-08-10T17:11:11.705Z,98959.02
2018-08-10T17:13:39.908Z,98962.71
2018-08-10T17:16:08.937Z,98959.72
2018-08-10T17:18:37.376Z,98964.55
2018-08-10T17:21:05.870Z,98962.03
2018-08-10T17:23:35.189Z,98965.10
2018-08-10T17:26:04.327Z,98953.03
2018-08-10T17:28:32.528Z,98956.58
2018-08-10T17:31:00.832Z,98948.30
2018-08-10T17:33:29.089Z,98953.10
2018-08-10T17:35:57.937Z,98950.30
2018-08-10T17:38:28.635Z,98961.20
2018-08-10T17:40:59.404Z,98949.67
2018-08-10T17:43:32.674Z,98959.42
2018-08-10T17:46:01.453Z,98955.23
2018-08-10T17:48:30.566Z,98962.86
2018-08-10T17:51:01.955Z,98960.95
2018-08-10T17:53:30.637Z,98962.66
2018-08-10T17:55:59.179Z,98954.37
2018-08-10T17:58:27.925Z,98956.02
2018-08-10T18:00:57.044Z,98952.00
2018-08-10T18:03:25.855Z,98956.85
2018-08-10T18:05:54.162Z,98961.84
2018-08-10T18:08:22.413Z,98963.55
2018-08-10T18:10:50.760Z,98972.87
2018-08-10T18:13:21.192Z,98969.09
2018-08-10T18:15:49.877Z,98965.64
2018-08-10T18:18:20.020Z,98969.08
2018-08-10T18:20:48.299Z,98971.53
2018-08-10T18:23:17.060Z,98971.47
2018-08-10T18:25:45.273Z,98973.16
2018-08-10T18:28:13.616Z,98978.23
2018-08-10T18:30:41.785Z,98977.36
2018-08-10T18:33:11.473Z,98972.25
2018-08-10T18:35:40.933Z,98972.89
2018-08-10T18:38:09.164Z,98974.45
2018-08-10T18:40:38.764Z,98982.78
2018-08-10T18:43:07.328Z,98988.23
2018-08-10T18:45:36.047Z,98985.41
2018-08-10T18:48:04.710Z,98982.13
2018-08-10T18:50:33.866Z,98984.55
2018-08-10T18:53:03.072Z,98985.20
2018-08-10T18:55:32.185Z,98984.52
2018-08-10T18:58:00.539Z,98986.02
2018-08-10T19:00:28.825Z,98986.16
2018-08-10T19:02:57.583Z,98988.63
2018-08-10T19:05:26.477Z,98988.83
2018-08-10T19:07:54.742Z,98989.07
2018-08-10T19:10:26.293Z,98997.62
2018-08-10T19:12:54.550Z,98998.15
2018-08-10T19:15:22.804Z,98996.92
2018-08-10T19:17:51.030Z,98990.74
2018-08-10T19:20:19.841Z,98996.53
2018-08-10T19:22:48.123Z,98994.89
2018-08-10T19:25:17.145Z,99001.11
2018-08-10T19:27:47.826Z,99007.05
2018-08-10T19:30:18.310Z,99002.30
2018-08-10T19:32:47.564Z,99008.23
2018-08-10T19:35:16.864Z,99002.90
2018-08-10T19:37:45.419Z,99004.09
2018-08-10T19:40:17.965Z,99006.77
2018-08-10T19:42:46.231Z,99008.72
2018-08-10T19:45:16.165Z,99012.70
2018-08-10T19:47:44.516Z,99010.22
2018-08-10T19:50:14.922Z,99004.00
2018-08-10T19:52:43.730Z,99007.11
2018-08-10T19:55:14.751Z,99009.59
2018-08-10T19:57:43.304Z,99009.77
2018-08-10T20:00:14.140Z,99005.17
2018-08-10T20:02:42.956Z,99006.14
2018-08-10T20:05:11.254Z,99007.79
2018-08-10T20:07:39.460Z,99004.50
2018-08-10T20:10:09.422Z,99003.38
2018-08-10T20:12:37.912Z,99004.69
2018-08-10T20:15:09.806Z,98995.86
2018-08-10T20:17:38.198Z,98991.09
2018-08-10T20:20:08.443Z,98995.67
2018-08-10T20:22:36.730Z,98993.41
2018-08-10T20:25:06.200Z,98993.72
2018-08-10T20:27:34.905Z,98993.70
2018-08-10T20:30:04.542Z,98994.47
2018-08-10T20:32:32.836Z,98995.78
2018-08-10T20:35:01.116Z,99002.45
2018-08-10T20:37:29.324Z,98997.55
2018-08-10T20:39:57.827Z,99002.30
2018-08-10T20:42:26.498Z,98991.97
2018-08-10T20:44:54.662Z,98991.61
2018-08-10T20:47:22.917Z,98993.22
2018-08-10T20:49:51.453Z,98990.77
2018-08-10T20:52:20.458Z,98992.39
2018-08-10T20:54:48.618Z,98989.29
2018-08-10T20:57:17.136Z,98990.26
2018-08-10T20:59:45.603Z,98991.88
2018-08-10T21:02:13.959Z,98992.52
2018-08-10T21:04:42.188Z,98992.48
2018-08-10T21:07:10.758Z,98995.08
2018-08-10T21:09:38.996Z,98989.14
2018-08-10T21:12:07.934Z,98995.83
2018-08-10T21:14:36.140Z,98987.66
2018-08-10T21:17:04.728Z,98984.34
2018-08-10T21:19:33.025Z,98985.22
2018-08-10T21:22:01.211Z,98981.03
2018-08-10T21:24:29.591Z,98979.33
2018-08-10T21:26:57.819Z,98977.00
2018-08-10T21:29:26.607Z,98972.06
2018-08-10T21:31:55.100Z,98974.22
2018-08-10T21:34:23.577Z,98974.94
2018-08-10T21:36:51.821Z,98977.60
2018-08-10T21:39:20.039Z,98982.55
2018-08-10T21:41:49.184Z,98974.81
2018-08-10T21:44:17.743Z,98980.14
2018-08-10T21:46:46.304Z,98984.06
2018-08-10T21:49:14.579Z,98985.95
2018-08-10T21:51:42.799Z,98980.09
2018-08-10T21:54:11.774Z,98982.29
2018-08-10T21:56:40.192Z,98980.23
2018-08-10T21:59:08.843Z,98989.33
2018-08-10T22:01:37.078Z,98989.03
2018-08-10T22:04:05.354Z,98979.63
2018-08-10T22:06:33.916Z,98983.94
2018-08-10T22:09:03.269Z,98989.47
2018-08-10T22:11:38.262Z,98987.94
2018-08-10T22:14:12.331Z,98993.39
2018-08-10T22:16:46.268Z,98993.08
2018-08-10T22:19:16.366Z,98993.64
2018-08-10T22:21:45.658Z,98997.93
2018-08-10T22:24:14.936Z,99002.74
2018-08-10T22:26:43.498Z,99001.42
2018-08-10T22:29:12.000Z,98996.19
2018-08-10T22:31:40.452Z,98996.92
2018-08-10T22:34:09.174Z,99003.22
2018-08-10T22:36:37.480Z,98999.38
2018-08-10T22:39:08.200Z,99010.53
2018-08-10T22:41:36.795Z,99006.73
2018-08-10T22:44:05.734Z,99007.26
2018-08-10T22:46:34.210Z,99004.13
2018-08-10T22:49:02.724Z,99004.91
2018-08-10T22:51:37.597Z,99011.00
2018-08-10T22:54:06.112Z,99017.41
2018-08-10T22:56:34.921Z,99014.09
2018-08-10T22:59:03.169Z,99006.58
2018-08-10T23:01:31.680Z,99000.84
2018-08-10T23:04:00.231Z,99006.56
2018-08-10T23:06:28.524Z,99011.49
2018-08-10T23:08:57.066Z,99010.95
2018-08-10T23:11:25.220Z,99003.02
2018-08-10T23:13:53.448Z,99004.91
2018-08-10T23:16:22.017Z,99000.66
2018-08-10T23:18:51.532Z,99007.66
2018-08-10T23:21:20.364Z,99010.08
2018-08-10T23:23:48.696Z,99011.56
2018-08-10T23:26:17.279Z,98999.94
2018-08-10T23:28:45.505Z,99008.13
2018-08-10T23:31:13.736Z,99004.91
2018-08-10T23:33:42.339Z,99002.59
2018-08-10T23:36:11.100Z,99001.91
2018-08-10T23:38:40.921Z,99000.28
2018-08-10T23:41:09.327Z,99000.47
2018-08-10T23:43:38.260Z,98995.73
2018-08-10T23:46:08.041Z,98997.66
2018-08-10T23:48:36.285Z,99003.45
2018-08-10T23:51:04.565Z,99006.01
2018-08-10T23:53:33.093Z,99011.58
2018-08-10T23:56:01.820Z,99003.34
2018-08-10T23:58:32.634Z,99004.98
